Time;durP1;ratioP1;P1;durP2;ratioP2;P2;SDS_P1;SDS_P2;PMS_P1;PMS_P2;Temp;Humidity;BMP_temperature;BMP_pressure;BME280_temperature;BME280_humidity;BME280_pressure;Samples;Min_cycle;Max_cycle;Signal;HPM_P1;HPM_P2
2022/10/29 00:00:16;;;;;;;22.98;16.85;;;;;;;12.95;90.67;101057.59;1670646;85;20995;-64
2022/10/29 00:02:43;;;;;;;19.05;16.35;;;;;;;12.90;90.86;101053.30;1672598;84;21014;-65
2022/10/29 00:05:09;;;;;;;19.02;15.58;;;;;;;12.90;91.10;101041.26;1678475;84;21007;-63
2022/10/29 00:07:35;;;;;;;;;;;;;;;12.92;91.25;101043.23;1681400;85;20991;-64
2022/10/29 00:10:01;;;;;;;20.17;17.00;;;;;;;12.93;91.21;101040.90;1681561;84;20147;-63
2022/10/29 00:12:28;;;;;;;;;;;;;;;12.89;91.32;101044.45;1678891;84;21007;-64
2022/10/29 00:14:55;;;;;;;21.95;17.98;;;;;;;12.85;91.58;101043.98;1687087;84;20139;-63
2022/10/29 00:17:23;;;;;;;20.88;16.50;;;;;;;12.80;91.79;101037.53;1656617;85;21023;-63
2022/10/29 00:19:49;;;;;;;18.57;16.57;;;;;;;12.79;92.09;101034.04;1657279;85;21105;-64
2022/10/29 00:22:16;;;;;;;33.63;16.85;;;;;;;12.81;92.08;101024.50;1685692;84;20995;-64
2022/10/29 00:24:42;;;;;;;19.80;16.10;;;;;;;12.80;92.01;101020.15;1655906;85;21495;-64
2022/10/29 00:27:09;;;;;;;19.35;16.62;;;;;;;12.77;92.00;101017.34;1655133;85;21581;-64
2022/10/29 00:29:35;;;;;;;20.60;16.55;;;;;;;12.72;92.04;101016.25;1678206;85;21066;-64
2022/10/29 00:32:06;;;;;;;20.25;16.35;;;;;;;12.68;92.26;101017.61;1669093;85;21110;-64
2022/10/29 00:34:32;;;;;;;18.98;17.00;;;;;;;12.68;92.22;101012.26;1665026;85;21023;-64
2022/10/29 00:36:58;;;;;;;18.73;16.62;;;;;;;12.61;92.48;101014.34;1677996;83;20994;-63
2022/10/29 00:39:25;;;;;;;18.37;15.95;;;;;;;12.56;92.62;101011.91;1699819;83;21599;-63
2022/10/29 00:41:52;;;;;;;18.55;16.10;;;;;;;12.50;92.65;101004.11;1697563;83;21484;-64
2022/10/29 00:44:34;;;;;;;21.70;16.73;;;;;;;12.45;92.62;100999.81;1699044;83;21524;-63
2022/10/29 00:47:28;;;;;;;17.30;15.68;;;;;;;12.38;93.03;100997.06;1697047;83;21010;-63
2022/10/29 00:50:02;;;;;;;19.05;15.20;;;;;;;12.34;93.17;100995.78;1698173;83;21045;-63
2022/10/29 00:52:32;;;;;;;18.15;16.20;;;;;;;12.29;93.79;100989.33;1699928;83;21047;-62
2022/10/29 00:55:02;;;;;;;20.05;16.30;;;;;;;12.25;94.12;100987.52;1676743;83;21645;-63
2022/10/29 00:57:34;;;;;;;17.65;15.40;;;;;;;12.25;94.32;100994.20;1699067;83;20987;-65
2022/10/29 01:00:01;;;;;;;19.82;16.25;;;;;;;12.24;94.19;100995.20;1702003;83;21061;-63
2022/10/29 01:02:29;;;;;;;20.80;15.40;;;;;;;12.21;94.28;100995.59;1678903;84;21029;-63
2022/10/29 01:04:55;;;;;;;16.65;14.45;;;;;;;12.19;94.50;100990.94;1657035;85;21034;-64
2022/10/29 01:07:22;;;;;;;17.17;14.43;;;;;;;12.18;94.49;100991.42;1670339;85;21047;-62
2022/10/29 01:09:49;;;;;;;17.75;15.85;;;;;;;12.19;94.37;100987.75;1661634;85;21052;-63
2022/10/29 01:12:43;;;;;;;16.35;14.23;;;;;;;12.16;94.63;100984.61;1644734;85;21038;-63
2022/10/29 01:15:24;;;;;;;16.73;14.93;;;;;;;12.15;94.73;100983.78;1666729;85;21029;-63
2022/10/29 01:18:16;;;;;;;15.55;13.78;;;;;;;12.13;94.68;100980.47;1625756;85;21058;-63
2022/10/29 01:21:17;;;;;;;18.87;15.53;;;;;;;12.10;94.88;100988.84;1624736;86;21047;-64
2022/10/29 01:24:20;;;;;;;16.77;14.15;;;;;;;12.07;95.04;100981.18;1641134;86;21050;-63
2022/10/29 01:27:28;;;;;;;17.30;14.28;;;;;;;12.04;95.24;100980.23;1667564;85;21017;-63
2022/10/29 01:30:38;;;;;;;16.15;13.68;;;;;;;12.03;95.46;100990.58;1645958;85;21015;-64
2022/10/29 01:33:22;;;;;;;17.70;14.90;;;;;;;12.00;95.86;100990.44;1624486;85;21541;-65
2022/10/29 01:36:08;;;;;;;21.02;15.72;;;;;;;11.90;95.92;100976.50;1669060;84;21107;-63
2022/10/29 01:39:03;;;;;;;17.90;14.40;;;;;;;11.94;96.10;100988.98;1670036;84;21081;-64
2022/10/29 01:41:40;;;;;;;16.15;13.00;;;;;;;11.96;96.03;100981.63;1673360;84;21595;-64
2022/10/29 01:44:37;;;;;;;16.12;14.28;;;;;;;11.98;96.20;100987.61;1652164;86;21571;-65
2022/10/29 01:47:18;;;;;;;17.15;14.38;;;;;;;11.97;96.04;100977.44;1605391;87;21132;-65
2022/10/29 01:49:55;;;;;;;16.57;13.75;;;;;;;11.96;96.00;100975.80;1652886;85;21086;-66
2022/10/29 01:52:23;;;;;;;15.05;13.45;;;;;;;11.96;95.86;100966.92;1630860;86;21040;-65
2022/10/29 01:54:49;;;;;;;17.55;13.62;;;;;;;11.96;96.08;100963.77;1618884;86;21172;-65
2022/10/29 01:57:34;;;;;;;16.35;13.40;;;;;;;11.98;95.90;100967.09;1618618;87;21554;-66
2022/10/29 02:00:05;;;;;;;18.07;13.00;;;;;;;11.99;95.89;100967.91;1613167;87;21223;-66
2022/10/29 02:03:00;;;;;;;14.00;12.55;;;;;;;11.99;95.57;100965.23;1608466;87;21516;-66
2022/10/29 02:05:53;;;;;;;13.95;12.55;;;;;;;11.99;95.80;100964.72;1619957;87;21110;-65
2022/10/29 02:08:34;;;;;;;15.98;13.58;;;;;;;12.00;95.93;100962.39;1647691;85;21654;-65
2022/10/29 02:11:10;;;;;;;18.10;12.80;;;;;;;12.03;95.56;100961.19;1636678;86;21062;-65
2022/10/29 02:13:47;;;;;;;16.52;12.68;;;;;;;12.03;95.48;100962.52;1627070;86;21047;-65
2022/10/29 02:16:15;;;;;;;17.37;12.45;;;;;;;12.01;95.23;100961.88;1638586;86;21172;-65
2022/10/29 02:18:45;;;;;;;19.92;13.68;;;;;;;11.98;95.07;100948.87;1640463;86;21088;-65
2022/10/29 02:21:20;;;;;;;16.73;12.33;;;;;;;11.95;95.07;100945.25;1651005;85;21534;-66
2022/10/29 02:23:49;;;;;;;14.60;12.58;;;;;;;11.93;95.07;100954.77;1653384;86;21595;-65
2022/10/29 02:26:15;;;;;;;18.80;12.68;;;;;;;11.92;95.38;100954.95;1670983;84;21112;-65
2022/10/29 02:28:42;;;;;;;14.13;12.73;;;;;;;11.92;95.32;100954.95;1649779;85;20996;-65
2022/10/29 02:31:09;;;;;;;17.10;13.30;;;;;;;11.90;95.24;100944.44;1643327;85;21557;-65
2022/10/29 02:33:37;;;;;;;15.55;12.95;;;;;;;11.88;95.32;100945.95;1649255;85;20988;-65
2022/10/29 02:36:04;;;;;;;13.53;11.83;;;;;;;11.87;95.19;100938.11;1650091;85;21042;-65
2022/10/29 02:38:31;;;;;;;18.27;12.75;;;;;;;11.86;95.28;100938.59;1649762;85;21572;-64
2022/10/29 02:40:57;;;;;;;15.98;14.35;;;;;;;11.92;95.05;100940.26;1650233;85;21051;-67
2022/10/29 02:43:23;;;;;;;14.53;12.45;;;;;;;11.91;94.73;100937.28;1646110;85;21027;-65
2022/10/29 02:45:49;;;;;;;;;;;;;;;11.81;95.03;100932.14;1652024;85;21075;-66
2022/10/29 02:48:16;;;;;;;20.10;13.00;;;;;;;11.78;95.46;100931.19;1643115;85;20109;-66
2022/10/29 02:50:42;;;;;;;14.85;13.35;;;;;;;11.71;95.52;100929.73;1650711;85;21098;-65
2022/10/29 02:53:09;;;;;;;17.12;12.25;;;;;;;11.69;95.51;100929.91;1642206;85;21071;-66
2022/10/29 02:55:35;;;;;;;15.18;12.55;;;;;;;11.69;95.75;100929.09;1641618;85;21516;-65
2022/10/29 02:58:01;;;;;;;14.53;12.90;;;;;;;11.66;95.64;100920.12;1633983;86;22247;-65
2022/10/29 03:00:27;;;;;;;14.07;12.47;;;;;;;11.65;95.85;100921.13;1615102;87;21131;-64
2022/10/29 03:02:54;;;;;;;16.57;13.00;;;;;;;11.63;95.91;100925.81;1636720;86;21079;-66
2022/10/29 03:05:20;;;;;;;16.42;12.70;;;;;;;11.58;95.95;100921.52;1640568;86;21131;-66
2022/10/29 03:07:46;;;;;;;15.80;12.47;;;;;;;11.57;96.02;100927.38;1658779;85;21194;-66
2022/10/29 03:10:13;;;;;;;;;;;;;;;11.56;96.06;100930.21;1659756;85;21079;-66
2022/10/29 03:12:39;;;;;;;17.75;13.83;;;;;;;11.52;95.96;100934.26;1657779;85;20153;-64
2022/10/29 03:15:07;;;;;;;19.97;13.10;;;;;;;11.43;96.35;100929.00;1663579;85;21031;-66
2022/10/29 03:17:33;;;;;;;14.83;12.28;;;;;;;11.42;96.06;100925.98;1676798;84;21188;-65
2022/10/29 03:20:03;;;;;;;14.03;12.10;;;;;;;11.40;96.15;100917.33;1682274;84;21038;-66
2022/10/29 03:22:29;;;;;;;15.50;12.67;;;;;;;11.39;96.48;100923.66;1686776;84;21495;-66
2022/10/29 03:24:56;;;;;;;14.93;12.47;;;;;;;11.38;96.71;100923.88;1674141;84;21527;-65
2022/10/29 03:27:22;;;;;;;20.62;15.20;;;;;;;11.35;96.60;100913.03;1650960;86;21531;-66
2022/10/29 03:29:48;;;;;;;14.13;12.65;;;;;;;11.34;96.53;100914.05;1645611;85;21086;-65
2022/10/29 03:32:14;;;;;;;14.20;12.75;;;;;;;11.33;96.75;100911.56;1653406;85;21126;-67
2022/10/29 03:34:41;;;;;;;19.25;12.47;;;;;;;11.32;96.55;100909.41;1658055;86;20999;-67
2022/10/29 03:37:07;;;;;;;13.50;12.18;;;;;;;11.29;96.45;100901.75;1654668;86;21472;-67
2022/10/29 03:39:34;;;;;;;18.73;12.37;;;;;;;11.26;96.22;100900.76;1659824;86;21077;-68
2022/10/29 03:42:02;;;;;;;17.65;12.95;;;;;;;11.22;96.23;100890.13;1662231;86;21038;-67
2022/10/29 03:44:30;;;;;;;14.30;12.45;;;;;;;11.21;96.67;100891.15;1644359;86;21026;-67
2022/10/29 03:46:57;;;;;;;14.07;12.55;;;;;;;11.21;96.73;100900.48;1615542;87;21041;-67
2022/10/29 03:49:26;;;;;;;;;;;;;;;11.21;96.78;100899.16;1633637;85;21073;-67
2022/10/29 03:51:52;;;;;;;15.77;12.47;;;;;;;11.20;96.58;100901.48;1615648;87;20197;-68
2022/10/29 03:54:19;;;;;;;18.80;12.80;;;;;;;11.14;96.73;100907.02;1627372;85;21068;-68
2022/10/29 03:56:46;;;;;;;19.55;12.82;;;;;;;11.14;96.58;100901.69;1648933;84;20996;-68
2022/10/29 03:59:12;;;;;;;;;;;;;;;11.13;96.32;100888.01;1646776;86;21566;-67
2022/10/29 04:01:38;;;;;;;16.05;13.40;;;;;;;11.10;96.26;100880.38;1640420;85;20170;-68
2022/10/29 04:04:07;;;;;;;19.52;14.23;;;;;;;10.98;96.23;100882.64;1653702;85;21040;-67
2022/10/29 04:06:33;;;;;;;14.78;13.32;;;;;;;10.92;96.38;100883.33;1657576;85;21480;-68
2022/10/29 04:08:59;;;;;;;18.57;15.13;;;;;;;10.89;96.58;100881.86;1635012;86;21007;-67
2022/10/29 04:11:26;;;;;;;15.08;13.58;;;;;;;10.84;96.63;100880.73;1644796;86;21007;-67
2022/10/29 04:13:52;;;;;;;14.98;13.32;;;;;;;10.81;96.87;100878.41;1625111;87;21021;-67
2022/10/29 04:16:19;;;;;;;15.30;12.78;;;;;;;10.80;97.16;100879.42;1677029;85;21090;-67
2022/10/29 04:18:49;;;;;;;13.83;12.57;;;;;;;10.77;97.31;100883.25;1667546;85;21025;-67
2022/10/29 04:21:17;;;;;;;17.70;13.63;;;;;;;10.75;97.43;100883.12;1677343;83;21077;-66
2022/10/29 04:23:43;;;;;;;18.70;13.90;;;;;;;10.71;97.59;100886.12;1715969;82;20995;-67
2022/10/29 04:26:09;;;;;;;;;;;;;;;10.29;97.78;100827.88;1709590;82;21102;-67
2022/10/29 04:28:35;;;;;;;15.87;13.70;;;;;;;10.59;97.72;100884.87;1716255;82;20485;-67
2022/10/29 04:31:10;;;;;;;17.97;13.87;;;;;;;10.49;98.07;100880.25;1716055;82;21079;-67
2022/10/29 04:33:40;;;;;;;19.43;13.80;;;;;;;10.45;98.46;100874.47;1713183;82;20999;-67
2022/10/29 04:36:07;;;;;;;21.40;15.13;;;;;;;10.42;98.65;100870.80;1719599;82;21327;-69
2022/10/29 04:38:34;;;;;;;16.80;13.67;;;;;;;10.42;98.85;100873.47;1714955;82;21115;-67
2022/10/29 04:41:01;;;;;;;19.20;15.18;;;;;;;10.41;99.08;100869.12;1719817;82;21129;-68
2022/10/29 04:43:30;;;;;;;19.13;13.90;;;;;;;10.43;99.12;100864.96;1694655;83;21720;-66
2022/10/29 04:45:58;;;;;;;18.87;14.17;;;;;;;10.43;99.27;100871.63;1711128;82;21043;-66
2022/10/29 04:48:27;;;;;;;17.00;14.93;;;;;;;10.43;99.26;100870.30;1721737;82;21041;-66
2022/10/29 04:50:54;;;;;;;15.10;13.53;;;;;;;10.46;99.13;100878.77;1722102;82;21089;-67
2022/10/29 04:53:20;;;;;;;24.67;14.80;;;;;;;10.49;99.45;100872.25;1722087;82;21003;-72
2022/10/29 04:55:47;;;;;;;16.13;14.17;;;;;;;10.52;99.47;100871.40;1721951;82;21599;-77
2022/10/29 04:58:18;;;;;;;14.13;12.37;;;;;;;10.59;99.35;100868.06;1723018;82;21030;-76
2022/10/29 05:00:45;;;;;;;16.93;14.13;;;;;;;10.61;99.34;100873.53;1722070;82;21066;-67
2022/10/29 05:03:12;;;;;;;17.67;14.27;;;;;;;10.67;99.36;100880.81;1721833;82;21276;-74
2022/10/29 05:05:40;;;;;;;16.20;13.30;;;;;;;10.75;99.62;100875.12;1719442;82;21083;-69
2022/10/29 05:08:09;;;;;;;15.13;13.47;;;;;;;10.89;99.41;100866.37;1722805;82;21186;-69
2022/10/29 05:10:38;;;;;;;15.83;13.07;;;;;;;11.02;99.01;100871.09;1724149;82;21033;-69
2022/10/29 05:13:09;;;;;;;18.17;13.40;;;;;;;11.12;98.14;100868.20;1732756;82;21032;-70
2022/10/29 05:15:37;;;;;;;16.15;13.58;;;;;;;11.18;97.72;100860.30;1722657;82;21113;-69
2022/10/29 05:18:06;;;;;;;16.33;13.47;;;;;;;11.25;97.00;100852.41;1719307;83;21100;-70
2022/10/29 05:20:32;;;;;;;14.73;12.87;;;;;;;11.29;96.40;100845.70;1721534;82;21596;-65
2022/10/29 05:23:03;;;;;;;14.67;13.17;;;;;;;11.34;96.35;100841.14;1727100;82;21027;-74
2022/10/29 05:25:31;;;;;;;19.90;13.13;;;;;;;11.39;95.99;100845.44;1722264;82;21500;-74
2022/10/29 05:28:08;;;;;;;13.97;12.53;;;;;;;11.56;96.52;100850.12;1717936;82;21569;-75
2022/10/29 05:30:34;;;;;;;17.87;13.32;;;;;;;12.00;96.47;100857.37;1720535;82;21081;-64
2022/10/29 05:33:08;;;;;;;17.87;12.47;;;;;;;12.62;94.43;100854.70;1721902;82;21138;-70
2022/10/29 05:35:35;;;;;;;14.40;12.10;;;;;;;13.31;91.25;100850.66;1708185;82;21506;-65
2022/10/29 05:38:03;;;;;;;14.07;11.35;;;;;;;13.90;88.03;100850.75;1721690;82;21089;-73
2022/10/29 05:40:30;;;;;;;20.43;12.93;;;;;;;14.05;84.82;100798.36;1719995;82;21060;-69
2022/10/29 05:42:56;;;;;;;12.25;10.88;;;;;;;14.80;81.29;100848.84;1725472;82;21598;-69
2022/10/29 05:45:24;;;;;;;17.45;13.03;;;;;;;15.10;79.13;100848.48;1730859;82;21486;-70
2022/10/29 05:48:03;;;;;;;17.60;12.78;;;;;;;15.21;77.17;100859.12;1728159;82;21160;-67
2022/10/29 05:50:31;;;;;;;15.43;11.35;;;;;;;15.09;76.43;100850.34;1717689;82;21009;-67
2022/10/29 05:53:04;;;;;;;15.95;13.10;;;;;;;14.82;77.68;100852.15;1719356;82;21010;-68
2022/10/29 05:55:34;;;;;;;19.25;12.73;;;;;;;14.56;78.44;100851.05;1699981;83;21047;-68
2022/10/29 05:58:04;;;;;;;16.48;12.93;;;;;;;14.33;78.43;100850.55;1719284;82;21071;-68
2022/10/29 06:00:35;;;;;;;16.55;14.33;;;;;;;14.09;79.82;100842.00;1719833;82;21101;-68
2022/10/29 06:03:02;;;;;;;20.32;13.03;;;;;;;13.88;80.57;100837.57;1715765;83;21000;-67
2022/10/29 06:05:29;;;;;;;18.20;14.35;;;;;;;13.63;80.81;100833.17;1725952;82;21104;-69
2022/10/29 06:07:59;;;;;;;20.77;14.47;;;;;;;13.41;82.01;100835.08;1721085;82;21038;-68
2022/10/29 06:10:28;;;;;;;16.77;14.28;;;;;;;13.27;82.52;100838.66;1719609;82;21176;-68
2022/10/29 06:12:54;;;;;;;14.95;13.30;;;;;;;13.15;83.74;100840.53;1718276;82;21065;-69
2022/10/29 06:15:21;;;;;;;18.10;14.10;;;;;;;13.12;84.04;100840.08;1721739;82;21033;-70
2022/10/29 06:17:49;;;;;;;19.62;14.68;;;;;;;13.09;84.18;100837.78;1719798;82;20996;-67
2022/10/29 06:20:19;;;;;;;14.07;12.47;;;;;;;13.08;84.88;100833.47;1721885;82;21037;-69
2022/10/29 06:22:46;;;;;;;17.60;13.85;;;;;;;13.08;84.95;100830.78;1715225;82;21006;-67
2022/10/29 06:25:13;;;;;;;16.12;14.30;;;;;;;13.09;84.44;100835.95;1721713;82;21065;-68
2022/10/29 06:27:40;;;;;;;21.57;14.35;;;;;;;13.04;84.09;100836.52;1718080;82;21527;-68
2022/10/29 06:30:08;;;;;;;;;;;;;;;13.05;84.42;100831.98;1715267;82;21598;-69
2022/10/29 06:32:35;;;;;;;16.97;14.18;;;;;;;13.05;84.07;100839.52;1719720;82;20105;-67
2022/10/29 06:35:01;;;;;;;20.27;14.85;;;;;;;13.01;84.82;100843.58;1719794;82;21608;-71
2022/10/29 06:37:32;;;;;;;;;;;;;;;13.06;84.41;100837.66;1716657;82;21021;-69
2022/10/29 06:39:55;;;;;;;17.40;14.95;;;;;;;13.03;83.84;100837.55;1718701;82;20158;-68
2022/10/29 06:42:21;;;;;;;21.05;15.18;;;;;;;12.97;84.41;100828.11;1718995;83;21015;-69
2022/10/29 06:44:47;;;;;;;18.57;14.33;;;;;;;12.93;84.72;100824.98;1721492;83;21519;-69
2022/10/29 06:47:14;;;;;;;18.37;15.50;;;;;;;12.87;84.27;100816.91;1719916;82;21117;-68
2022/10/29 06:49:40;;;;;;;22.58;16.77;;;;;;;12.80;84.73;100812.83;1722082;82;21008;-71
2022/10/29 06:52:06;;;;;;;22.65;17.32;;;;;;;12.72;84.63;100807.61;1721866;82;21596;-69
2022/10/29 06:54:34;;;;;;;20.85;17.35;;;;;;;12.60;84.95;100809.45;1717473;82;21488;-71
2022/10/29 06:57:00;;;;;;;21.65;17.02;;;;;;;12.50;85.69;100799.56;1720640;82;21748;-68
2022/10/29 06:59:26;;;;;;;21.65;15.93;;;;;;;12.41;86.17;100790.00;1683036;84;21047;-70
2022/10/29 07:01:52;;;;;;;22.27;17.87;;;;;;;12.32;86.59;100781.77;1695855;83;21131;-70
2022/10/29 07:04:20;;;;;;;21.30;18.65;;;;;;;12.22;87.16;100786.09;1702490;83;21102;-69
2022/10/29 07:06:47;;;;;;;28.00;16.50;;;;;;;12.18;87.35;100780.81;1695902;83;21080;-69
2022/10/29 07:09:13;;;;;;;;;;;;;;;12.13;87.72;100776.53;1674074;84;21041;-71
2022/10/29 07:11:39;;;;;;;25.12;18.77;;;;;;;11.84;87.99;100725.61;1671042;84;20113;-68
2022/10/29 07:14:08;;;;;;;21.55;18.25;;;;;;;12.12;88.60;100773.03;1699938;83;21597;-66
2022/10/29 07:16:35;;;;;;;19.80;17.67;;;;;;;12.15;88.85;100771.33;1680889;84;21087;-62
2022/10/29 07:19:03;;;;;;;20.55;17.12;;;;;;;12.20;89.14;100772.09;1720346;82;21049;-64
2022/10/29 07:21:29;;;;;;;21.77;17.07;;;;;;;12.17;89.08;100762.62;1733451;82;21082;-62
2022/10/29 07:23:56;;;;;;;19.98;16.42;;;;;;;12.32;89.39;100773.76;1727232;82;21489;-62
2022/10/29 07:26:23;;;;;;;21.97;17.25;;;;;;;12.42;88.70;100774.30;1730527;82;21499;-62
2022/10/29 07:28:49;;;;;;;19.37;16.65;;;;;;;12.53;88.97;100784.48;1726802;81;21010;-64
2022/10/29 07:31:15;;;;;;;20.68;17.77;;;;;;;12.61;87.43;100779.52;1706724;83;21593;-62
2022/10/29 07:33:42;;;;;;;21.55;17.80;;;;;;;12.64;87.21;100789.85;1733764;82;20972;-63
2022/10/29 07:36:09;;;;;;;20.60;17.52;;;;;;;12.62;87.14;100783.84;1727216;80;21014;-63
2022/10/29 07:38:37;;;;;;;31.77;19.60;;;;;;;12.59;87.20;100790.41;1715768;82;21022;-61
2022/10/29 07:41:04;;;;;;;26.57;19.32;;;;;;;12.58;87.36;100788.77;1719289;82;21543;-62
2022/10/29 07:43:31;;;;;;;27.07;20.52;;;;;;;12.56;87.18;100780.59;1733713;82;21061;-61
2022/10/29 07:45:58;;;;;;;28.95;19.57;;;;;;;12.51;87.56;100777.66;1727771;82;21487;-61
2022/10/29 07:48:24;;;;;;;26.75;19.27;;;;;;;12.48;88.02;100784.22;1727072;82;21018;-63
2022/10/29 07:50:51;;;;;;;;;;;;;;;12.45;88.12;100780.58;1729035;82;21109;-64
2022/10/29 07:53:17;;;;;;;23.63;18.83;;;;;;;12.41;88.40;100772.63;1727372;82;20109;-63
2022/10/29 07:55:52;;;;;;;24.60;18.85;;;;;;;12.36;89.15;100779.07;1731088;82;21018;-61
2022/10/29 07:58:18;;;;;;;24.82;17.98;;;;;;;12.37;89.00;100767.34;1724812;82;21096;-62
2022/10/29 08:00:44;;;;;;;;;;;;;;;12.39;89.14;100767.46;1728457;82;21022;-62
2022/10/29 08:03:11;;;;;;;24.02;18.25;;;;;;;12.44;89.24;100770.41;1719793;82;20177;-61
2022/10/29 08:05:40;;;;;;;21.68;16.67;;;;;;;12.45;89.43;100776.56;1723748;82;21067;-62
2022/10/29 08:08:07;;;;;;;21.55;17.62;;;;;;;12.50;89.60;100767.48;1728111;82;21041;-62
2022/10/29 08:10:35;;;;;;;19.00;16.15;;;;;;;12.59;89.16;100775.70;1729677;82;21120;-65
2022/10/29 08:13:03;;;;;;;21.65;17.42;;;;;;;12.66;89.25;100776.59;1730235;82;20999;-65
2022/10/29 08:15:32;;;;;;;20.82;16.27;;;;;;;12.76;89.55;100770.91;1730384;82;21476;-63
2022/10/29 08:18:01;;;;;;;21.00;16.10;;;;;;;12.87;88.87;100775.45;1723368;82;20994;-61
2022/10/29 08:20:28;;;;;;;26.42;17.00;;;;;;;12.96;89.00;100779.61;1727518;82;21507;-61
2022/10/29 08:22:54;;;;;;;23.55;15.50;;;;;;;13.13;88.51;100783.69;1724990;82;20970;-63
2022/10/29 08:25:21;;;;;;;21.12;15.32;;;;;;;13.30;88.05;100775.34;1723295;82;21047;-65
2022/10/29 08:28:00;;;;;;;19.50;13.85;;;;;;;13.50;86.80;100758.11;1726759;82;21152;-63
2022/10/29 08:30:26;;;;;;;20.57;13.48;;;;;;;13.66;86.04;100759.13;1727521;82;21092;-62
2022/10/29 08:32:53;;;;;;;15.53;13.93;;;;;;;13.85;84.93;100750.05;1736321;82;21066;-63
2022/10/29 08:35:19;;;;;;;;;;;;;;;14.06;84.19;100747.76;1722030;82;21028;-62
2022/10/29 08:37:45;;;;;;;17.98;14.33;;;;;;;14.21;82.81;100742.53;1727345;82;20172;-63
2022/10/29 08:40:32;;;;;;;15.10;13.53;;;;;;;14.24;82.23;100743.16;1729473;82;21059;-63
2022/10/29 08:43:41;;;;;;;19.73;14.18;;;;;;;14.27;82.32;100739.55;1713713;82;21022;-61
2022/10/29 08:46:22;;;;;;;20.92;14.05;;;;;;;14.34;82.29;100747.62;1724106;82;21030;-62
2022/10/29 08:48:59;;;;;;;20.17;14.38;;;;;;;14.41;81.90;100739.09;1731491;82;21043;-63
2022/10/29 08:51:38;;;;;;;17.10;13.55;;;;;;;14.41;81.26;100727.02;1727418;82;21133;-62
2022/10/29 08:54:08;;;;;;;15.58;13.48;;;;;;;14.43;81.54;100726.30;1725491;82;20998;-64
2022/10/29 08:56:37;;;;;;;14.33;12.88;;;;;;;14.44;81.19;100715.05;1727015;82;21053;-65
2022/10/29 08:59:15;;;;;;;16.62;13.25;;;;;;;14.52;81.32;100717.02;1730717;82;20991;-63
2022/10/29 09:01:42;;;;;;;16.95;12.53;;;;;;;14.62;81.12;100707.75;1731501;82;21045;-62
2022/10/29 09:04:32;;;;;;;20.57;14.35;;;;;;;14.74;80.86;100712.82;1721813;82;21034;-62
2022/10/29 09:07:34;;;;;;;15.98;13.15;;;;;;;14.88;80.55;100716.31;1721526;82;21088;-62
2022/10/29 09:10:33;;;;;;;14.43;12.35;;;;;;;15.04;79.88;100712.40;1726181;82;21558;-62
2022/10/29 09:13:35;;;;;;;13.18;10.80;;;;;;;15.18;79.21;100714.86;1732964;82;20982;-63
2022/10/29 09:16:20;;;;;;;15.08;12.35;;;;;;;14.68;78.96;100613.05;1720735;82;21109;-62
2022/10/29 09:19:12;;;;;;;15.95;12.18;;;;;;;15.35;78.41;100705.83;1724455;82;21014;-64
2022/10/29 09:24:14;;;;;;;14.00;11.85;;;;;;;15.56;77.97;100697.20;1799537;77;22988;-65
2022/10/29 09:26:49;;;;;;;12.90;10.60;;;;;;;15.60;77.35;100698.41;1788812;78;21077;-62
2022/10/29 09:29:47;;;;;;;17.05;11.65;;;;;;;15.73;77.31;100698.88;1758200;80;20987;-65
2022/10/29 09:32:39;;;;;;;12.58;11.03;;;;;;;15.81;76.21;100691.13;1731348;81;21059;-63
2022/10/29 09:35:15;;;;;;;17.10;10.68;;;;;;;15.83;76.09;100678.29;1717442;81;21004;-64
2022/10/29 09:37:59;;;;;;;13.03;11.43;;;;;;;15.88;76.34;100679.30;1721011;81;21081;-62
2022/10/29 09:40:35;;;;;;;11.78;10.55;;;;;;;15.95;76.22;100679.24;1713338;80;21043;-67
2022/10/29 09:43:22;;;;;;;15.20;10.18;;;;;;;16.00;75.58;100674.05;1715403;81;21180;-68
2022/10/29 09:46:28;;;;;;;11.60;9.70;;;;;;;16.06;75.38;100655.70;1701497;80;21017;-69
2022/10/29 09:49:26;;;;;;;12.98;10.95;;;;;;;16.09;75.45;100650.44;1685207;82;21014;-70
2022/10/29 09:52:04;;;;;;;12.28;10.20;;;;;;;16.09;75.18;100645.05;1713302;82;21549;-71
2022/10/29 09:54:31;;;;;;;11.35;9.83;;;;;;;16.09;75.48;100629.73;1696095;82;21076;-69
2022/10/29 09:57:01;;;;;;;13.48;10.13;;;;;;;16.14;75.36;100631.76;1726637;81;21026;-66
2022/10/29 09:59:53;;;;;;;15.32;9.90;;;;;;;16.25;75.36;100632.92;1757361;80;21652;-69
2022/10/29 10:02:31;;;;;;;12.78;10.28;;;;;;;16.37;75.29;100627.16;1699752;79;21145;-70
2022/10/29 10:05:14;;;;;;;12.03;9.78;;;;;;;16.51;74.03;100613.87;1685194;83;20988;-67
2022/10/29 10:07:41;;;;;;;11.28;9.33;;;;;;;16.57;73.73;100601.41;1669700;83;21784;-68
2022/10/29 10:10:23;;;;;;;10.30;9.20;;;;;;;16.64;73.56;100598.66;1738505;81;21585;-68
2022/10/29 10:12:50;;;;;;;10.58;9.48;;;;;;;16.70;73.04;100599.11;1736257;81;21025;-68
2022/10/29 10:15:27;;;;;;;11.45;9.20;;;;;;;16.71;72.81;100606.16;1740917;82;22167;-67
2022/10/29 10:18:20;;;;;;;12.33;8.58;;;;;;;16.77;72.33;100597.71;1728535;81;21034;-69
2022/10/29 10:21:08;;;;;;;13.93;9.43;;;;;;;16.78;73.15;100593.95;1719972;81;20989;-68
2022/10/29 10:23:52;;;;;;;11.48;9.98;;;;;;;16.78;73.15;100593.95;1710557;83;21124;-67
2022/10/29 10:26:41;;;;;;;9.65;7.85;;;;;;;16.84;72.74;100580.47;1715013;83;21034;-68
2022/10/29 10:29:21;;;;;;;14.33;8.63;;;;;;;16.88;72.14;100571.43;1703559;82;21069;-69
2022/10/29 10:32:07;;;;;;;12.55;8.93;;;;;;;16.85;71.67;100557.06;1711924;82;21042;-68
2022/10/29 10:34:38;;;;;;;11.80;10.00;;;;;;;16.82;71.74;100549.39;1726118;82;21093;-69
2022/10/29 10:37:16;;;;;;;14.78;9.03;;;;;;;16.79;71.88;100538.56;1726867;82;21050;-69
2022/10/29 10:39:46;;;;;;;10.18;7.67;;;;;;;16.76;72.04;100513.42;1715957;82;21400;-69
2022/10/29 10:42:27;;;;;;;15.72;8.90;;;;;;;16.71;72.50;100494.45;1713836;82;21016;-69
2022/10/29 10:44:58;;;;;;;11.43;8.05;;;;;;;16.64;73.91;100542.15;1700519;82;21078;-68
2022/10/29 10:47:29;;;;;;;9.78;8.75;;;;;;;16.64;73.91;100542.15;1714693;82;21055;-68
2022/10/29 10:50:18;;;;;;;9.13;8.23;;;;;;;16.61;75.75;100529.13;1726091;81;21352;-68
2022/10/29 10:52:45;;;;;;;15.72;8.35;;;;;;;16.58;76.08;100526.38;1716464;82;21102;-67
2022/10/29 10:55:31;;;;;;;11.38;8.10;;;;;;;16.57;76.77;100526.59;1725715;82;21555;-66
2022/10/29 10:58:15;;;;;;;12.00;8.08;;;;;;;16.55;76.88;100514.70;1724500;81;21018;-67
2022/10/29 11:00:58;;;;;;;15.90;9.35;;;;;;;16.51;76.82;100503.55;1718578;82;21007;-68
2022/10/29 11:03:33;;;;;;;9.95;8.68;;;;;;;16.43;76.87;100511.93;1712247;82;20998;-66
2022/10/29 11:06:28;;;;;;;11.12;8.95;;;;;;;16.37;77.22;100516.86;1718078;82;21041;-68
2022/10/29 11:09:17;;;;;;;14.90;9.58;;;;;;;16.37;77.25;100498.03;1702812;82;22124;-69
2022/10/29 11:12:03;;;;;;;12.37;9.55;;;;;;;16.34;77.70;100487.17;1721104;82;21498;-71
2022/10/29 11:14:42;;;;;;;16.27;9.93;;;;;;;16.29;77.75;100492.42;1719541;82;21096;-68
2022/10/29 11:17:26;;;;;;;10.32;9.28;;;;;;;16.26;77.98;100481.28;1718073;82;21033;-69
2022/10/29 11:20:08;;;;;;;12.45;10.25;;;;;;;16.26;78.28;100490.70;1713475;82;20994;-70
2022/10/29 11:23:00;;;;;;;10.48;9.33;;;;;;;16.28;78.10;100486.73;1732444;82;21106;-70
2022/10/29 11:25:41;;;;;;;10.25;9.15;;;;;;;16.30;78.27;100481.95;1714798;82;21041;-68
2022/10/29 11:28:31;;;;;;;13.68;9.50;;;;;;;16.30;78.42;100481.95;1719528;82;21562;-69
2022/10/29 11:31:18;;;;;;;14.58;10.43;;;;;;;16.33;78.30;100473.95;1683485;83;21104;-76
2022/10/29 11:34:01;;;;;;;12.25;9.93;;;;;;;16.30;78.57;100471.72;1662698;83;21381;-72
2022/10/29 11:36:33;;;;;;;13.05;9.78;;;;;;;16.27;78.65;100468.12;1637365;86;21674;-70
2022/10/29 11:39:24;;;;;;;12.15;9.93;;;;;;;16.29;78.89;100460.65;1622081;87;21056;-71
2022/10/29 11:42:00;;;;;;;11.85;9.93;;;;;;;16.30;78.92;100449.67;1645287;85;21058;-70